createdAt,value
2023-05-10T00:00:57.099Z,0.55
2023-05-10T00:03:24.690Z,0.55
2023-05-10T00:05:51.815Z,0.70
2023-05-10T00:08:18.940Z,1.05
2023-05-10T00:10:45.969Z,0.90
2023-05-10T00:13:13.477Z,0.50
2023-05-10T00:15:40.590Z,0.50
2023-05-10T00:18:07.727Z,0.93
2023-05-10T00:20:34.789Z,0.80
2023-05-10T00:23:01.959Z,0.50
2023-05-10T00:25:28.949Z,0.40
2023-05-10T00:27:58.824Z,0.47
2023-05-10T00:30:25.989Z,0.30
2023-05-10T00:32:53.034Z,0.52
2023-05-10T00:35:20.199Z,0.30
2023-05-10T00:37:48.669Z,0.52
2023-05-10T00:40:15.830Z,0.57
2023-05-10T00:42:46.678Z,0.57
2023-05-10T00:45:13.606Z,0.50
2023-05-10T00:47:41.114Z,0.65
2023-05-10T00:50:10.066Z,0.50
2023-05-10T00:52:37.382Z,0.50
2023-05-10T00:55:05.216Z,0.85
2023-05-10T00:57:32.349Z,0.57
2023-05-10T01:00:00.509Z,0.40
2023-05-10T01:02:28.439Z,0.40
2023-05-10T01:04:57.524Z,0.50
2023-05-10T01:07:24.820Z,0.40
2023-05-10T01:09:51.878Z,0.75
2023-05-10T01:12:19.071Z,0.70
2023-05-10T01:14:46.552Z,1.25
2023-05-10T01:17:14.583Z,0.80
2023-05-10T01:19:42.444Z,0.43
2023-05-10T01:22:44.136Z,0.40
2023-05-10T01:25:23.956Z,0.63
2023-05-10T01:27:56.838Z,0.50
2023-05-10T01:30:39.025Z,0.50
2023-05-10T01:33:29.236Z,0.70
2023-05-10T01:36:15.298Z,1.10
2023-05-10T01:38:52.947Z,0.60
2023-05-10T01:41:40.987Z,0.68
2023-05-10T01:44:22.897Z,0.50
2023-05-10T01:47:12.015Z,0.63
2023-05-10T01:49:51.211Z,0.60
2023-05-10T01:52:22.713Z,0.50
2023-05-10T01:54:56.424Z,0.90
2023-05-10T01:57:27.247Z,0.75
2023-05-10T01:59:56.208Z,0.90
2023-05-10T02:02:27.298Z,1.20
2023-05-10T02:04:56.479Z,0.63
2023-05-10T02:07:25.261Z,0.30
2023-05-10T02:09:53.059Z,0.52
2023-05-10T02:12:23.454Z,1.08
2023-05-10T02:14:52.865Z,0.70
2023-05-10T02:17:21.057Z,2.17
2023-05-10T02:19:50.848Z,0.90
2023-05-10T02:22:23.578Z,2.35
2023-05-10T02:24:51.999Z,0.65
2023-05-10T02:27:21.109Z,0.50
2023-05-10T02:29:49.543Z,0.75
2023-05-10T02:32:17.751Z,0.77
2023-05-10T02:34:46.960Z,1.00
2023-05-10T02:37:19.385Z,0.70
2023-05-10T02:39:48.391Z,0.57
2023-05-10T02:42:19.354Z,0.80
2023-05-10T02:44:50.575Z,2.03
2023-05-10T02:47:19.404Z,0.68
2023-05-10T02:49:46.960Z,0.70
2023-05-10T02:52:20.755Z,1.27
2023-05-10T02:54:51.864Z,0.98
2023-05-10T02:57:24.482Z,1.70
2023-05-10T02:59:51.593Z,0.85
2023-05-10T03:02:18.778Z,2.08
2023-05-10T03:04:45.921Z,0.70
2023-05-10T03:07:13.046Z,1.55
2023-05-10T03:09:41.471Z,0.90
2023-05-10T03:12:26.020Z,0.93
2023-05-10T03:15:13.419Z,1.05
2023-05-10T03:18:03.109Z,1.23
2023-05-10T03:20:36.876Z,1.17
2023-05-10T03:23:12.374Z,1.02
2023-05-10T03:25:41.212Z,1.02
2023-05-10T03:28:09.899Z,0.80
2023-05-10T03:30:38.044Z,0.60
2023-05-10T03:33:09.050Z,0.77
2023-05-10T03:38:07.331Z,0.60
2023-05-10T03:40:34.661Z,1.05
2023-05-10T03:43:02.425Z,1.10
2023-05-10T03:45:29.581Z,1.35
2023-05-10T03:47:57.296Z,1.98
2023-05-10T03:50:25.858Z,1.20
2023-05-10T03:52:54.749Z,1.40
2023-05-10T03:55:22.132Z,1.00
2023-05-10T03:57:50.832Z,1.40
2023-05-10T04:00:18.316Z,1.95
2023-05-10T04:02:48.203Z,0.98
2023-05-10T04:05:20.025Z,1.58
2023-05-10T04:07:48.279Z,2.42
2023-05-10T04:10:17.718Z,1.40
2023-05-10T04:12:44.963Z,0.85
2023-05-10T04:15:11.995Z,0.90
2023-05-10T04:17:39.110Z,1.77
2023-05-10T04:20:07.686Z,1.23
2023-05-10T04:22:34.750Z,1.15
2023-05-10T04:25:01.789Z,1.08
2023-05-10T04:27:29.154Z,2.08
2023-05-10T04:29:56.203Z,0.77
2023-05-10T04:32:23.300Z,1.00
2023-05-10T04:34:50.625Z,0.93
2023-05-10T04:37:18.128Z,1.00
2023-05-10T04:39:45.389Z,1.40
2023-05-10T04:42:13.106Z,1.83
2023-05-10T04:44:40.117Z,2.53
2023-05-10T04:47:07.012Z,1.80
2023-05-10T04:49:33.986Z,1.55
2023-05-10T04:52:00.989Z,1.90
2023-05-10T04:54:27.969Z,1.33
2023-05-10T04:56:55.276Z,1.50
2023-05-10T04:59:22.276Z,2.80
2023-05-10T05:01:49.382Z,2.05
2023-05-10T05:04:17.058Z,0.95
2023-05-10T05:06:44.326Z,1.35
2023-05-10T05:09:11.359Z,1.40
2023-05-10T05:11:38.415Z,1.65
2023-05-10T05:14:05.350Z,1.45
2023-05-10T05:16:33.269Z,1.85
2023-05-10T05:19:01.008Z,2.00
2023-05-10T05:21:28.269Z,3.58
2023-05-10T05:23:55.218Z,5.05
2023-05-10T05:26:22.523Z,4.07
2023-05-10T05:28:51.132Z,1.50
2023-05-10T05:31:18.979Z,2.20
2023-05-10T05:33:46.036Z,1.60
2023-05-10T05:36:13.089Z,1.35
2023-05-10T05:38:40.114Z,1.90
2023-05-10T05:41:07.204Z,1.65
2023-05-10T05:43:36.048Z,2.08
2023-05-10T05:46:04.574Z,1.77
2023-05-10T05:48:32.461Z,3.45
2023-05-10T05:50:59.554Z,2.03
2023-05-10T05:53:26.633Z,1.70
2023-05-10T05:55:59.059Z,2.72
2023-05-10T05:58:26.727Z,2.20
2023-05-10T06:00:54.070Z,2.28
2023-05-10T06:03:21.776Z,2.83
2023-05-10T06:05:49.370Z,1.50
2023-05-10T06:08:16.649Z,2.17
2023-05-10T06:10:43.652Z,1.58
2023-05-10T06:13:11.121Z,1.45
2023-05-10T06:15:38.159Z,1.60
2023-05-10T06:18:05.541Z,1.60
2023-05-10T06:20:32.740Z,1.17
2023-05-10T06:22:59.946Z,1.20
2023-05-10T06:25:27.151Z,1.30
2023-05-10T06:27:58.507Z,1.40
2023-05-10T06:30:30.345Z,1.42
2023-05-10T06:32:58.096Z,0.90
2023-05-10T06:35:25.408Z,1.17
2023-05-10T06:37:52.671Z,1.02
2023-05-10T06:40:20.436Z,1.58
2023-05-10T06:42:48.690Z,0.95
2023-05-10T06:45:16.606Z,0.90
2023-05-10T06:47:44.533Z,1.00
2023-05-10T06:50:18.394Z,1.05
2023-05-10T06:52:45.625Z,1.05
2023-05-10T06:55:12.862Z,1.00
2023-05-10T06:57:39.826Z,1.20
2023-05-10T07:00:07.662Z,0.80
2023-05-10T07:02:34.977Z,1.00
2023-05-10T07:05:03.456Z,1.38
2023-05-10T07:07:30.962Z,1.33
2023-05-10T07:09:58.893Z,1.23
2023-05-10T07:12:26.178Z,1.30
2023-05-10T07:14:53.510Z,0.85
2023-05-10T07:17:20.828Z,1.15
2023-05-10T07:19:48.081Z,1.30
2023-05-10T07:22:15.772Z,1.50
2023-05-10T07:24:42.957Z,1.00
2023-05-10T07:27:10.245Z,1.00
2023-05-10T07:29:37.459Z,0.98
2023-05-10T07:32:04.621Z,0.80
2023-05-10T07:34:32.840Z,0.90
2023-05-10T07:37:00.515Z,1.00
2023-05-10T07:39:28.556Z,1.10
2023-05-10T07:41:56.431Z,1.30
2023-05-10T07:44:23.799Z,1.15
2023-05-10T07:46:50.892Z,1.20
2023-05-10T07:49:18.014Z,1.10
2023-05-10T07:51:45.316Z,0.90
2023-05-10T07:54:13.765Z,1.50
2023-05-10T07:56:45.795Z,1.33
2023-05-10T07:59:16.914Z,0.93
2023-05-10T08:01:44.624Z,1.42
2023-05-10T08:04:12.899Z,1.30
2023-05-10T08:06:41.481Z,1.23
2023-05-10T08:09:10.646Z,1.13
2023-05-10T08:11:37.910Z,1.85
2023-05-10T08:14:05.117Z,1.40
2023-05-10T08:16:32.936Z,1.27
2023-05-10T08:19:02.289Z,1.40
2023-05-10T08:21:29.699Z,1.25
2023-05-10T08:23:56.883Z,1.20
2023-05-10T08:26:24.055Z,1.40
2023-05-10T08:28:51.140Z,1.20
2023-05-10T08:31:19.325Z,1.20
2023-05-10T08:33:46.570Z,1.20
2023-05-10T08:36:15.398Z,1.13
2023-05-10T08:38:42.589Z,1.20
2023-05-10T08:41:12.522Z,1.05
2023-05-10T08:43:40.338Z,1.80
2023-05-10T08:46:11.281Z,1.10
2023-05-10T08:48:40.138Z,1.27
2023-05-10T08:51:09.398Z,3.95
2023-05-10T08:53:38.545Z,1.20
2023-05-10T08:56:06.313Z,1.50
2023-05-10T08:58:33.820Z,0.90
2023-05-10T09:01:02.130Z,0.90
2023-05-10T09:03:29.599Z,1.10
2023-05-10T09:05:59.990Z,1.17
2023-05-10T09:08:27.653Z,0.82
2023-05-10T09:10:56.286Z,0.85
2023-05-10T09:13:24.729Z,1.45
2023-05-10T09:15:52.505Z,0.80
2023-05-10T09:18:19.826Z,0.90
2023-05-10T09:20:49.228Z,0.95
2023-05-10T09:23:16.490Z,1.20
2023-05-10T09:25:44.773Z,1.50
2023-05-10T09:28:12.353Z,0.90
2023-05-10T09:30:40.333Z,0.80
2023-05-10T09:33:07.497Z,1.60
2023-05-10T09:35:35.055Z,1.00
2023-05-10T09:38:06.269Z,1.60
2023-05-10T09:40:33.656Z,0.93
2023-05-10T09:43:12.087Z,1.08
2023-05-10T09:45:39.383Z,0.90
2023-05-10T09:48:07.448Z,0.68
2023-05-10T09:50:35.478Z,0.82
2023-05-10T09:53:05.025Z,0.95
2023-05-10T09:55:46.165Z,1.20
2023-05-10T09:58:16.449Z,2.33
2023-05-10T10:00:48.860Z,1.02
2023-05-10T10:03:21.325Z,16.45
2023-05-10T10:05:50.013Z,2.83
2023-05-10T10:08:19.084Z,1.17
2023-05-10T10:10:47.622Z,0.82
2023-05-10T10:13:15.524Z,0.93
2023-05-10T10:15:43.684Z,0.80
2023-05-10T10:18:15.325Z,1.10
2023-05-10T10:20:42.882Z,1.10
2023-05-10T10:23:09.996Z,3.42
2023-05-10T10:25:37.106Z,1.42
2023-05-10T10:28:28.039Z,0.90
2023-05-10T10:30:56.959Z,1.17
2023-05-10T10:33:31.321Z,0.88
2023-05-10T10:36:03.053Z,1.02
2023-05-10T10:38:48.480Z,0.80
2023-05-10T10:41:38.200Z,1.20
2023-05-10T10:44:23.904Z,0.80
2023-05-10T10:47:10.423Z,1.02
2023-05-10T10:49:49.581Z,1.00
2023-05-10T10:52:28.526Z,0.70
2023-05-10T10:55:15.514Z,1.30
2023-05-10T10:57:42.646Z,0.80
2023-05-10T11:00:23.409Z,1.20
2023-05-10T11:03:14.617Z,0.88
2023-05-10T11:05:43.106Z,0.70
2023-05-10T11:08:12.115Z,0.73
2023-05-10T11:10:40.251Z,1.08
2023-05-10T11:13:09.762Z,1.23
2023-05-10T11:15:40.928Z,1.00
2023-05-10T11:18:22.688Z,0.95
2023-05-10T11:21:09.403Z,1.02
2023-05-10T11:23:57.286Z,1.13
2023-05-10T11:26:26.685Z,1.20
2023-05-10T11:28:56.486Z,1.35
2023-05-10T11:31:24.583Z,1.05
2023-05-10T11:33:54.513Z,0.77
2023-05-10T11:36:22.590Z,1.17
2023-05-10T11:38:49.845Z,1.00
2023-05-10T11:41:19.285Z,1.30
2023-05-10T11:43:52.649Z,1.33
2023-05-10T11:46:24.550Z,1.35
2023-05-10T11:48:53.806Z,1.55
2023-05-10T11:51:23.616Z,1.60
2023-05-10T11:53:55.484Z,1.55
2023-05-10T11:56:23.148Z,1.50
2023-05-10T11:58:58.131Z,1.20
2023-05-10T12:01:27.688Z,0.90
2023-05-10T12:04:00.011Z,1.30
2023-05-10T12:06:33.741Z,1.05
2023-05-10T12:09:06.784Z,1.40
2023-05-10T12:11:37.512Z,1.52
2023-05-10T12:14:06.550Z,2.08
2023-05-10T12:16:33.676Z,1.05
2023-05-10T12:19:02.035Z,2.00
2023-05-10T12:21:31.950Z,1.02
2023-05-10T12:24:04.589Z,1.15
2023-05-10T12:26:31.994Z,1.17
2023-05-10T12:29:16.030Z,1.30
2023-05-10T12:31:57.072Z,1.48
2023-05-10T12:34:31.644Z,1.27
2023-05-10T12:36:59.511Z,1.35
2023-05-10T12:39:26.904Z,1.25
2023-05-10T12:41:58.616Z,1.77
2023-05-10T12:44:25.788Z,1.50
2023-05-10T12:46:52.935Z,2.13
2023-05-10T12:49:20.804Z,1.50
2023-05-10T12:51:47.965Z,1.75
2023-05-10T12:54:14.962Z,1.55
2023-05-10T12:56:43.825Z,2.10
2023-05-10T12:59:10.762Z,2.15
2023-05-10T13:01:38.011Z,1.95
2023-05-10T13:04:05.068Z,3.33
2023-05-10T13:06:32.457Z,8.57
2023-05-10T13:08:59.568Z,21.80
2023-05-10T13:11:26.725Z,4.10
2023-05-10T13:13:53.792Z,2.95
2023-05-10T13:16:20.953Z,1.88
2023-05-10T13:18:48.248Z,1.70
2023-05-10T13:21:15.253Z,2.67
2023-05-10T13:23:42.327Z,2.20
2023-05-10T13:26:09.395Z,1.83
2023-05-10T13:28:36.523Z,2.35
2023-05-10T13:31:03.563Z,7.00
2023-05-10T13:33:30.557Z,7.93
2023-05-10T13:35:57.490Z,3.95
2023-05-10T13:38:27.411Z,2.75
2023-05-10T13:40:54.514Z,2.63
2023-05-10T13:43:21.545Z,1.95
2023-05-10T13:45:48.747Z,2.03
2023-05-10T13:48:15.739Z,2.08
2023-05-10T13:50:42.888Z,7.65
2023-05-10T13:53:12.743Z,2.13
2023-05-10T13:56:36.019Z,2.75
2023-05-10T13:59:06.705Z,2.80
2023-05-10T14:01:33.833Z,2.15
2023-05-10T14:04:01.655Z,2.42
2023-05-10T14:06:28.924Z,2.35
2023-05-10T14:08:56.292Z,2.80
2023-05-10T14:11:24.861Z,2.42
2023-05-10T14:13:52.042Z,2.90
2023-05-10T14:16:19.537Z,2.95
2023-05-10T14:18:46.732Z,3.15
2023-05-10T14:21:14.370Z,2.50
2023-05-10T14:23:41.362Z,2.80
2023-05-10T14:26:08.948Z,2.75
2023-05-10T14:28:35.891Z,3.00
2023-05-10T14:31:03.540Z,2.45
2023-05-10T14:33:30.608Z,2.25
2023-05-10T14:35:58.418Z,2.90
2023-05-10T14:38:25.355Z,3.03
2023-05-10T14:40:52.346Z,2.83
2023-05-10T14:43:19.839Z,2.33
2023-05-10T14:45:47.193Z,2.38
2023-05-10T14:48:16.611Z,2.13
2023-05-10T14:50:43.597Z,2.80
2023-05-10T14:53:35.165Z,2.25
2023-05-10T14:56:05.591Z,2.75
2023-05-10T14:58:34.253Z,3.00
2023-05-10T15:01:01.976Z,2.53
2023-05-10T15:03:29.730Z,3.03
2023-05-10T15:05:58.933Z,3.47
2023-05-10T15:08:26.183Z,3.25
2023-05-10T15:10:53.370Z,4.03
2023-05-10T15:13:20.421Z,3.85
2023-05-10T15:15:47.436Z,3.65
2023-05-10T15:18:14.472Z,4.03
2023-05-10T15:20:41.613Z,3.42
2023-05-10T15:23:08.992Z,4.00
2023-05-10T15:25:38.254Z,3.72
2023-05-10T15:28:05.663Z,3.90
2023-05-10T15:30:32.673Z,4.38
2023-05-10T15:33:00.131Z,3.90
2023-05-10T15:35:28.302Z,4.75
2023-05-10T15:37:55.289Z,4.50
2023-05-10T15:40:22.433Z,4.85
2023-05-10T15:42:49.595Z,5.85
2023-05-10T15:45:16.846Z,5.32
2023-05-10T15:47:45.402Z,5.22
2023-05-10T15:50:12.954Z,5.65
2023-05-10T15:52:40.073Z,5.28
2023-05-10T15:55:13.060Z,6.07
2023-05-10T15:57:41.610Z,5.30
2023-05-10T16:00:10.053Z,6.18
2023-05-10T16:02:42.974Z,5.57
2023-05-10T16:05:10.377Z,6.00
2023-05-10T16:07:37.355Z,5.05
2023-05-10T16:10:06.662Z,5.93
2023-05-10T16:12:33.736Z,6.18
2023-05-10T16:15:00.690Z,6.03
2023-05-10T16:17:27.829Z,8.73
2023-05-10T16:19:54.949Z,6.85
2023-05-10T16:22:22.517Z,6.32
2023-05-10T16:24:53.756Z,6.10
2023-05-10T16:27:20.945Z,5.95
2023-05-10T16:29:48.468Z,6.07
2023-05-10T16:32:15.544Z,5.97
2023-05-10T16:34:42.465Z,7.32
2023-05-10T16:37:10.071Z,6.72
2023-05-10T16:39:37.306Z,7.00
2023-05-10T16:42:04.558Z,6.88
2023-05-10T16:44:31.662Z,6.70
2023-05-10T16:46:58.612Z,6.65
2023-05-10T16:49:27.031Z,8.30
2023-05-10T16:51:54.103Z,7.47
2023-05-10T16:54:22.146Z,8.00
2023-05-10T16:56:49.393Z,7.50
2023-05-10T16:59:16.738Z,8.70
2023-05-10T17:01:43.898Z,8.98
2023-05-10T17:04:11.077Z,8.05
2023-05-10T17:06:38.256Z,7.72
2023-05-10T17:09:05.907Z,8.73
2023-05-10T17:11:33.342Z,9.15
2023-05-10T17:14:01.894Z,9.07
2023-05-10T17:16:30.153Z,8.32
2023-05-10T17:18:57.267Z,8.77
2023-05-10T17:21:24.356Z,8.05
2023-05-10T17:23:51.465Z,9.07
2023-05-10T17:26:18.615Z,8.10
2023-05-10T17:28:45.628Z,8.73
2023-05-10T17:31:12.702Z,8.65
2023-05-10T17:33:39.669Z,8.60
2023-05-10T17:36:07.036Z,8.60
2023-05-10T17:38:34.128Z,8.63
2023-05-10T17:41:01.196Z,8.82
2023-05-10T17:43:28.256Z,9.13
2023-05-10T17:45:55.282Z,9.70
2023-05-10T17:48:22.212Z,8.48
2023-05-10T17:50:52.118Z,7.35
2023-05-10T17:53:19.586Z,8.52
2023-05-10T17:55:47.185Z,7.88
2023-05-10T17:58:14.257Z,7.40
2023-05-10T18:00:41.439Z,8.68
2023-05-10T18:03:08.644Z,7.60
2023-05-10T18:05:37.787Z,6.70
2023-05-10T18:08:05.735Z,7.07
2023-05-10T18:10:32.783Z,13.95
2023-05-10T18:13:00.770Z,12.43
2023-05-10T18:15:28.024Z,8.10
2023-05-10T18:17:56.059Z,7.78
2023-05-10T18:20:24.833Z,7.53
2023-05-10T18:22:51.904Z,5.68
2023-05-10T18:25:19.077Z,5.97
2023-05-10T18:27:46.537Z,7.25
2023-05-10T18:30:14.451Z,6.22
2023-05-10T18:32:41.980Z,6.82
2023-05-10T18:35:09.723Z,5.35
2023-05-10T18:37:38.523Z,4.65
2023-05-10T18:40:09.669Z,7.28
2023-05-10T18:42:36.859Z,7.13
2023-05-10T18:45:04.220Z,5.20
2023-05-10T18:47:31.241Z,5.28
2023-05-10T18:49:58.386Z,5.78
2023-05-10T18:52:25.546Z,5.82
2023-05-10T18:54:52.995Z,4.80
2023-05-10T18:57:21.593Z,5.40
2023-05-10T18:59:49.244Z,4.95
2023-05-10T19:02:16.542Z,5.55
2023-05-10T19:04:43.779Z,5.18
2023-05-10T19:07:11.376Z,5.00
2023-05-10T19:09:38.543Z,4.82
2023-05-10T19:12:05.787Z,5.55
2023-05-10T19:14:32.916Z,5.30
2023-05-10T19:17:01.338Z,5.32
2023-05-10T19:19:28.585Z,5.95
2023-05-10T19:21:55.773Z,5.15
2023-05-10T19:24:25.553Z,5.57
2023-05-10T19:26:52.786Z,5.50
2023-05-10T19:29:19.882Z,6.28
2023-05-10T19:31:47.358Z,4.47
2023-05-10T19:34:14.369Z,6.07
2023-05-10T19:36:41.503Z,5.18
2023-05-10T19:39:08.565Z,4.80
2023-05-10T19:41:35.681Z,5.28
2023-05-10T19:44:03.236Z,5.28
2023-05-10T19:46:31.412Z,5.07
2023-05-10T19:48:58.493Z,5.22
2023-05-10T19:51:28.268Z,5.47
2023-05-10T19:53:55.311Z,4.68
2023-05-10T19:56:22.433Z,4.60
2023-05-10T19:58:49.368Z,5.00
2023-05-10T20:01:16.492Z,5.10
2023-05-10T20:03:43.643Z,6.13
2023-05-10T20:06:10.771Z,5.28
2023-05-10T20:08:37.981Z,5.40
2023-05-10T20:11:05.053Z,6.65
2023-05-10T20:13:32.125Z,5.43
2023-05-10T20:16:00.024Z,15.27
2023-05-10T20:18:27.198Z,6.35
2023-05-10T20:20:55.624Z,5.95
2023-05-10T20:23:23.083Z,5.30
2023-05-10T20:25:50.443Z,5.85
2023-05-10T20:28:23.098Z,6.10
2023-05-10T20:30:54.157Z,4.82
2023-05-10T20:33:25.272Z,5.00
2023-05-10T20:35:52.535Z,4.32
2023-05-10T20:38:19.736Z,4.38
2023-05-10T20:40:47.431Z,4.50
2023-05-10T20:43:14.792Z,6.57
2023-05-10T20:45:42.110Z,4.50
2023-05-10T20:48:09.737Z,4.63
2023-05-10T20:50:36.824Z,4.50
2023-05-10T20:53:03.778Z,5.65
2023-05-10T20:55:30.918Z,5.03
2023-05-10T20:57:58.607Z,5.65
2023-05-10T21:00:26.185Z,5.25
2023-05-10T21:02:53.235Z,5.68
2023-05-10T21:05:20.224Z,5.43
2023-05-10T21:07:47.275Z,4.75
2023-05-10T21:10:14.382Z,5.53
2023-05-10T21:12:41.427Z,4.18
2023-05-10T21:15:09.312Z,4.60
2023-05-10T21:17:36.355Z,4.28
2023-05-10T21:20:03.819Z,10.95
2023-05-10T21:22:30.834Z,6.07
2023-05-10T21:24:58.042Z,5.72
2023-05-10T21:27:25.146Z,4.53
2023-05-10T21:29:52.350Z,5.70
2023-05-10T21:32:19.477Z,6.70
2023-05-10T21:34:46.447Z,6.13
2023-05-10T21:37:13.514Z,5.18
2023-05-10T21:39:40.572Z,4.72
2023-05-10T21:42:07.693Z,5.88
2023-05-10T21:44:35.009Z,6.10
2023-05-10T21:47:02.018Z,6.60
2023-05-10T21:49:31.508Z,6.18
2023-05-10T21:51:58.674Z,6.28
2023-05-10T21:54:25.691Z,6.07
2023-05-10T21:56:53.097Z,5.85
2023-05-10T21:59:21.454Z,5.40
2023-05-10T22:01:48.686Z,5.28
2023-05-10T22:04:15.972Z,5.68
2023-05-10T22:06:43.067Z,6.30
2023-05-10T22:09:10.303Z,6.20
2023-05-10T22:11:37.333Z,6.10
2023-05-10T22:14:04.475Z,5.78
2023-05-10T22:16:31.787Z,5.82
2023-05-10T22:18:58.803Z,6.13
2023-05-10T22:21:25.854Z,5.13
2023-05-10T22:23:52.759Z,5.43
2023-05-10T22:26:19.663Z,5.28
2023-05-10T22:28:46.607Z,5.55
2023-05-10T22:31:14.745Z,4.72
2023-05-10T22:33:41.730Z,4.82
2023-05-10T22:36:08.869Z,4.63
2023-05-10T22:38:35.970Z,5.43
2023-05-10T22:41:03.173Z,5.38
2023-05-10T22:43:30.156Z,4.75
2023-05-10T22:45:57.114Z,4.50
2023-05-10T22:48:26.088Z,4.68
2023-05-10T22:50:53.079Z,4.20
2023-05-10T22:53:20.085Z,4.75
2023-05-10T22:55:47.595Z,4.68
2023-05-10T22:58:14.591Z,4.63
2023-05-10T23:00:41.686Z,4.13
2023-05-10T23:03:08.925Z,4.15
2023-05-10T23:05:35.998Z,4.30
2023-05-10T23:08:02.988Z,3.88
2023-05-10T23:10:30.095Z,3.90
2023-05-10T23:12:57.153Z,4.45
2023-05-10T23:15:24.585Z,4.35
2023-05-10T23:17:51.613Z,3.67
2023-05-10T23:20:19.023Z,4.55
2023-05-10T23:22:46.373Z,4.18
2023-05-10T23:25:13.446Z,4.70
2023-05-10T23:27:40.437Z,3.70
2023-05-10T23:30:08.100Z,4.00
2023-05-10T23:32:35.126Z,4.22
2023-05-10T23:35:02.213Z,4.30
2023-05-10T23:37:29.196Z,3.70
2023-05-10T23:39:56.217Z,4.45
2023-05-10T23:42:23.228Z,4.13
2023-05-10T23:44:52.446Z,4.50
2023-05-10T23:47:19.580Z,4.45
2023-05-10T23:49:46.472Z,4.28
2023-05-10T23:52:13.528Z,4.55
2023-05-10T23:54:40.737Z,4.00
2023-05-10T23:57:07.955Z,3.90
2023-05-10T23:59:34.942Z,5.20
